Time;durP1;ratioP1;P1;durP2;ratioP2;P2;SDS_P1;SDS_P2;PMS_P1;PMS_P2;Temp;Humidity;BMP_temperature;BMP_pressure;BME280_temperature;BME280_humidity;BME280_pressure;Samples;Min_cycle;Max_cycle;Signal;HPM_P1;HPM_P2
2021/11/28 00:02:34;;;;;;;24.17;11.73;;;;;;;;;;6188188;22;20171;-91
2021/11/28 00:05:40;;;;;;;25.00;11.63;;;;;;;;;;6188461;22;20186;-91
2021/11/28 00:12:14;;;;;;;55.10;18.47;;;;;;;;;;6190307;22;20205;-91
2021/11/28 00:15:20;;;;;;;29.37;12.73;;;;;;;;;;6188720;23;20175;-91
2021/11/28 00:18:27;;;;;;;32.00;13.17;;;;;;;;;;6188180;23;20196;-89
2021/11/28 00:21:34;;;;;;;30.40;13.47;;;;;;;;;;6189337;22;20172;-90
2021/11/28 00:24:40;;;;;;;29.20;12.90;;;;;;;;;;6188389;23;20235;-91
2021/11/28 00:27:47;;;;;;;28.63;12.30;;;;;;;;;;6188032;22;20171;-90
2021/11/28 00:30:53;;;;;;;28.10;12.97;;;;;;;;;;6184901;23;20171;-92
2021/11/28 00:33:59;;;;;;;29.87;12.80;;;;;;;;;;6189308;23;20176;-91
2021/11/28 00:37:05;;;;;;;34.77;12.97;;;;;;;;;;6186663;23;20229;-90
2021/11/28 00:40:11;;;;;;;32.47;13.83;;;;;;;;;;6187472;23;20291;-92
2021/11/28 00:43:19;;;;;;;28.00;13.03;;;;;;;;;;6186684;23;20229;-92
2021/11/28 00:46:24;;;;;;;31.70;13.97;;;;;;;;;;6186860;23;20187;-91
2021/11/28 00:49:30;;;;;;;34.67;14.10;;;;;;;;;;6185721;22;20208;-92
2021/11/28 00:52:36;;;;;;;35.87;15.20;;;;;;;;;;6186627;23;20228;-90
2021/11/28 00:55:42;;;;;;;41.50;18.07;;;;;;;;;;6186851;22;20224;-91
2021/11/28 00:58:49;;;;;;;47.97;18.73;;;;;;;;;;6185745;23;20503;-92
2021/11/28 01:01:55;;;;;;;37.07;15.27;;;;;;;;;;6187427;22;20168;-93
2021/11/28 01:05:02;;;;;;;39.93;16.17;;;;;;;;;;6186432;23;20546;-90
2021/11/28 01:08:12;;;;;;;194.63;83.27;;;;;;;;;;6187214;23;20171;-92
2021/11/28 01:11:19;;;;;;;63.07;23.07;;;;;;;;;;6185926;23;20243;-89
2021/11/28 01:14:27;;;;;;;37.40;16.33;;;;;;;;;;6186097;23;20243;-91
2021/11/28 01:17:34;;;;;;;93.50;39.27;;;;;;;;;;6186239;23;20167;-88
2021/11/28 01:27:19;;;;;;;31.70;14.13;;;;;;;;;;6187327;23;20172;-91
2021/11/28 01:30:30;;;;;;;107.60;44.83;;;;;;;;;;6188733;23;20172;-92
2021/11/28 01:33:36;;;;;;;40.70;17.53;;;;;;;;;;6187718;22;20176;-90
2021/11/28 01:36:43;;;;;;;36.13;14.93;;;;;;;;;;6187888;23;20181;-91
2021/11/28 01:39:49;;;;;;;30.97;13.33;;;;;;;;;;6188027;22;20180;-90
2021/11/28 01:42:57;;;;;;;145.33;56.63;;;;;;;;;;6187160;23;20233;-91
2021/11/28 01:46:07;;;;;;;138.83;57.87;;;;;;;;;;6188383;23;20284;-89
2021/11/28 01:49:13;;;;;;;34.83;13.80;;;;;;;;;;6187641;23;20233;-89
2021/11/28 01:52:19;;;;;;;34.53;13.83;;;;;;;;;;6186003;23;20182;-91
2021/11/28 01:55:26;;;;;;;47.00;21.83;;;;;;;;;;6186495;23;20226;-90
2021/11/28 01:58:39;;;;;;;39.27;16.13;;;;;;;;;;6185941;23;20181;-90
2021/11/28 02:01:49;;;;;;;53.10;20.33;;;;;;;;;;6187830;23;20203;-91
2021/11/28 02:04:56;;;;;;;26.77;12.73;;;;;;;;;;6187894;23;20212;-89
2021/11/28 02:08:02;;;;;;;32.10;13.67;;;;;;;;;;6189144;23;20229;-90
2021/11/28 02:11:08;;;;;;;28.77;13.03;;;;;;;;;;6186613;23;20237;-91
2021/11/28 02:14:15;;;;;;;45.63;18.03;;;;;;;;;;6186892;23;20495;-89
2021/11/28 02:17:29;;;;;;;40.60;16.00;;;;;;;;;;6186249;22;20179;-90
2021/11/28 02:20:35;;;;;;;38.67;14.37;;;;;;;;;;6185908;23;20192;-91
2021/11/28 02:23:44;;;;;;;35.37;14.40;;;;;;;;;;6185810;22;20166;-90
2021/11/28 02:26:50;;;;;;;31.03;13.77;;;;;;;;;;6186991;23;20175;-91
2021/11/28 02:29:57;;;;;;;29.67;13.53;;;;;;;;;;6185543;23;20211;-90
2021/11/28 02:33:03;;;;;;;29.77;13.73;;;;;;;;;;6188066;23;20233;-91
2021/11/28 02:36:09;;;;;;;33.33;13.87;;;;;;;;;;6188165;23;20212;-92
2021/11/28 02:39:17;;;;;;;30.40;13.67;;;;;;;;;;6187769;22;20183;-89
2021/11/28 02:42:24;;;;;;;27.00;12.27;;;;;;;;;;6225887;23;20195;-92
2021/11/28 02:45:31;;;;;;;30.63;13.83;;;;;;;;;;6250743;23;20214;-89
2021/11/28 02:48:38;;;;;;;31.63;14.67;;;;;;;;;;6253587;22;20171;-91
2021/11/28 02:51:43;;;;;;;33.73;14.47;;;;;;;;;;6251870;23;20634;-90
2021/11/28 02:54:50;;;;;;;31.30;14.77;;;;;;;;;;6251579;23;20241;-90
2021/11/28 02:57:59;;;;;;;34.73;15.47;;;;;;;;;;6233124;23;20302;-90
2021/11/28 03:01:06;;;;;;;35.00;15.87;;;;;;;;;;6252331;23;20194;-89
2021/11/28 03:04:12;;;;;;;36.43;15.57;;;;;;;;;;6252326;22;20198;-91
2021/11/28 03:07:18;;;;;;;33.40;14.50;;;;;;;;;;6252527;23;20191;-90
2021/11/28 03:10:44;;;;;;;30.17;14.20;;;;;;;;;;6253505;23;20163;-88
2021/11/28 03:13:51;;;;;;;32.63;14.37;;;;;;;;;;6235823;23;20175;-90
2021/11/28 03:16:59;;;;;;;34.63;14.80;;;;;;;;;;6235183;23;20242;-92
2021/11/28 03:20:08;;;;;;;32.67;14.90;;;;;;;;;;6236029;23;20251;-89
2021/11/28 03:23:15;;;;;;;30.90;13.60;;;;;;;;;;6253176;23;20163;-89
2021/11/28 03:26:24;;;;;;;35.83;15.03;;;;;;;;;;6235604;23;20194;-92
2021/11/28 03:29:30;;;;;;;34.80;14.90;;;;;;;;;;6235544;23;20216;-90
2021/11/28 03:32:42;;;;;;;32.83;15.43;;;;;;;;;;6235238;23;20236;-90
2021/11/28 03:36:12;;;;;;;30.63;14.20;;;;;;;;;;6253755;23;20227;-90
2021/11/28 03:39:23;;;;;;;31.30;14.03;;;;;;;;;;6236154;23;20171;-90
2021/11/28 03:42:30;;;;;;;34.97;14.27;;;;;;;;;;6235358;23;20207;-90
2021/11/28 03:45:36;;;;;;;38.60;16.23;;;;;;;;;;6234453;23;20238;-90
2021/11/28 03:48:49;;;;;;;32.53;14.10;;;;;;;;;;6234718;23;20211;-89
2021/11/28 03:54:32;;;;;;;31.13;14.13;;;;;;;;;;6219060;22;20256;-91
2021/11/28 03:57:40;;;;;;;31.63;14.90;;;;;;;;;;6277758;22;20216;-89
2021/11/28 04:00:46;;;;;;;29.97;13.60;;;;;;;;;;6277891;22;20599;-89
2021/11/28 04:03:51;;;;;;;27.10;14.60;;;;;;;;;;6277653;22;20165;-90
2021/11/28 04:11:40;;;;;;;28.83;13.03;;;;;;;;;;6297146;22;20212;-90
2021/11/28 04:14:49;;;;;;;29.37;13.30;;;;;;;;;;6278569;22;20215;-89
2021/11/28 04:17:55;;;;;;;26.77;12.90;;;;;;;;;;6279604;22;20233;-91
2021/11/28 04:21:01;;;;;;;35.13;15.33;;;;;;;;;;6278910;22;20154;-90
2021/11/28 04:24:06;;;;;;;30.47;14.90;;;;;;;;;;6278161;22;20173;-92
2021/11/28 04:27:12;;;;;;;28.73;13.80;;;;;;;;;;6277160;22;20177;-89
2021/11/28 04:30:20;;;;;;;28.83;13.47;;;;;;;;;;6296074;22;20194;-91
2021/11/28 04:33:25;;;;;;;31.40;14.00;;;;;;;;;;6277448;22;20214;-91
2021/11/28 04:36:31;;;;;;;27.03;13.20;;;;;;;;;;6278387;22;20149;-91
2021/11/28 04:39:38;;;;;;;27.80;13.57;;;;;;;;;;6279282;22;20189;-91
2021/11/28 04:42:44;;;;;;;24.73;12.97;;;;;;;;;;6276822;22;20166;-91
2021/11/28 04:45:50;;;;;;;23.40;12.10;;;;;;;;;;6276167;22;20181;-90
2021/11/28 04:48:55;;;;;;;26.73;12.70;;;;;;;;;;6294371;22;20166;-91
2021/11/28 04:52:05;;;;;;;25.67;12.67;;;;;;;;;;6276904;22;20157;-90
2021/11/28 04:55:12;;;;;;;27.20;12.63;;;;;;;;;;6278344;22;20197;-91
2021/11/28 04:58:17;;;;;;;23.33;12.53;;;;;;;;;;6279409;22;20170;-90
2021/11/28 05:01:32;;;;;;;29.13;12.87;;;;;;;;;;6278150;22;20170;-91
2021/11/28 05:04:50;;;;;;;26.80;13.03;;;;;;;;;;6279250;22;20157;-90
2021/11/28 05:08:16;;;;;;;27.30;12.47;;;;;;;;;;6298425;22;20170;-91
2021/11/28 05:11:21;;;;;;;23.43;11.57;;;;;;;;;;6279337;22;20174;-89
2021/11/28 05:14:27;;;;;;;28.00;12.60;;;;;;;;;;6279322;22;20234;-90
2021/11/28 05:17:35;;;;;;;27.40;12.40;;;;;;;;;;6280336;22;20218;-91
2021/11/28 05:20:42;;;;;;;26.53;12.10;;;;;;;;;;6280977;22;20229;-90
2021/11/28 05:23:48;;;;;;;24.57;11.77;;;;;;;;;;6279743;22;20169;-91
2021/11/28 05:26:54;;;;;;;23.83;11.37;;;;;;;;;;6280087;22;20197;-91
2021/11/28 05:30:01;;;;;;;22.07;10.90;;;;;;;;;;6280387;22;20161;-90
2021/11/28 05:33:11;;;;;;;22.90;11.33;;;;;;;;;;6281225;22;20174;-91
2021/11/28 05:36:40;;;;;;;26.77;11.10;;;;;;;;;;6300183;22;20207;-90
2021/11/28 05:39:47;;;;;;;24.87;11.37;;;;;;;;;;6278834;22;20169;-93
2021/11/28 05:42:53;;;;;;;25.57;11.20;;;;;;;;;;6281609;22;20170;-89
2021/11/28 05:46:00;;;;;;;18.73;9.83;;;;;;;;;;6280294;22;20205;-91
2021/11/28 05:49:27;;;;;;;18.33;9.47;;;;;;;;;;6297477;22;20177;-91
2021/11/28 05:52:36;;;;;;;19.07;10.57;;;;;;;;;;6298470;22;20208;-92
2021/11/28 05:55:42;;;;;;;19.53;9.90;;;;;;;;;;6279496;22;20212;-90
2021/11/28 05:58:48;;;;;;;22.20;11.03;;;;;;;;;;6279640;22;20150;-91
2021/11/28 06:01:53;;;;;;;17.63;9.10;;;;;;;;;;6280932;22;20189;-91
2021/11/28 06:05:01;;;;;;;19.33;9.80;;;;;;;;;;6279349;22;20181;-91
2021/11/28 06:08:39;;;;;;;14.80;8.37;;;;;;;;;;6299199;22;20178;-92
2021/11/28 06:11:46;;;;;;;20.30;9.53;;;;;;;;;;6280405;22;20158;-90
2021/11/28 06:14:51;;;;;;;18.87;9.17;;;;;;;;;;6280284;22;20170;-90
2021/11/28 06:17:59;;;;;;;16.07;8.53;;;;;;;;;;6279635;22;20161;-89
2021/11/28 06:21:38;;;;;;;14.27;8.00;;;;;;;;;;6280621;22;20150;-91
2021/11/28 06:25:10;;;;;;;13.67;7.83;;;;;;;;;;6280469;22;20154;-91
2021/11/28 06:28:18;;;;;;;16.87;8.70;;;;;;;;;;6280360;22;20169;-91
2021/11/28 06:31:24;;;;;;;14.23;7.93;;;;;;;;;;6280687;22;20169;-92
2021/11/28 06:34:58;;;;;;;14.30;8.23;;;;;;;;;;6297901;22;20150;-90
2021/11/28 06:38:24;;;;;;;18.20;9.37;;;;;;;;;;6298555;22;20185;-91
2021/11/28 06:41:56;;;;;;;13.50;8.17;;;;;;;;;;6286781;22;20597;-92
2021/11/28 06:45:02;;;;;;;17.07;9.10;;;;;;;;;;6280186;22;20177;-92
2021/11/28 06:48:08;;;;;;;16.60;8.90;;;;;;;;;;6281193;22;20154;-90
2021/11/28 06:51:40;;;;;;;15.40;8.47;;;;;;;;;;6280724;22;20178;-90
2021/11/28 06:54:57;;;;;;;16.17;8.40;;;;;;;;;;6280877;22;20215;-90
2021/11/28 06:58:03;;;;;;;13.93;8.07;;;;;;;;;;6281056;22;20211;-91
2021/11/28 07:01:08;;;;;;;14.13;8.33;;;;;;;;;;6280381;22;20205;-92
2021/11/28 07:04:14;;;;;;;14.43;7.97;;;;;;;;;;6279050;22;20354;-89
2021/11/28 07:07:36;;;;;;;17.90;8.77;;;;;;;;;;6297476;22;20206;-90
2021/11/28 07:10:49;;;;;;;15.00;7.93;;;;;;;;;;6280801;22;20153;-89
2021/11/28 07:13:57;;;;;;;14.60;8.40;;;;;;;;;;6279765;22;20398;-92
2021/11/28 07:17:02;;;;;;;14.47;8.33;;;;;;;;;;6278473;22;20243;-90
2021/11/28 07:20:09;;;;;;;13.87;8.03;;;;;;;;;;6280628;22;20197;-92
2021/11/28 07:23:25;;;;;;;16.03;8.83;;;;;;;;;;6278464;22;20181;-91
2021/11/28 07:26:36;;;;;;;16.80;8.87;;;;;;;;;;6280165;22;20300;-91
2021/11/28 07:29:42;;;;;;;18.73;9.30;;;;;;;;;;6280015;22;20169;-92
2021/11/28 07:32:55;;;;;;;14.60;8.90;;;;;;;;;;6278969;22;20218;-92
2021/11/28 07:36:21;;;;;;;16.93;8.77;;;;;;;;;;6298469;22;20165;-92
2021/11/28 07:39:26;;;;;;;17.67;9.23;;;;;;;;;;6278596;22;20166;-90
2021/11/28 07:42:36;;;;;;;21.57;9.97;;;;;;;;;;6279541;22;20157;-90
2021/11/28 07:46:09;;;;;;;18.40;9.00;;;;;;;;;;6298063;22;20201;-91
2021/11/28 07:49:54;;;;;;;18.00;9.73;;;;;;;;;;6298749;22;20166;-89
2021/11/28 07:53:02;;;;;;;20.50;10.40;;;;;;;;;;6280015;22;20153;-90
2021/11/28 07:56:08;;;;;;;17.70;9.50;;;;;;;;;;6279096;22;20332;-90
2021/11/28 07:59:35;;;;;;;16.13;8.67;;;;;;;;;;6298237;22;20608;-90
2021/11/28 08:02:46;;;;;;;19.13;9.30;;;;;;;;;;6278783;22;20170;-93
2021/11/28 08:06:16;;;;;;;22.93;11.77;;;;;;;;;;6298253;22;20194;-91
2021/11/28 08:09:28;;;;;;;20.13;11.40;;;;;;;;;;6278743;22;20197;-91
2021/11/28 08:12:48;;;;;;;18.43;12.20;;;;;;;;;;6280347;22;20158;-91
2021/11/28 08:15:56;;;;;;;15.60;9.50;;;;;;;;;;6279546;22;20209;-91
2021/11/28 08:19:01;;;;;;;14.33;8.80;;;;;;;;;;6280434;22;20190;-90
2021/11/28 08:22:08;;;;;;;15.93;8.23;;;;;;;;;;6278994;22;20180;-90
2021/11/28 08:25:15;;;;;;;16.87;9.30;;;;;;;;;;6277358;22;20162;-90
2021/11/28 08:28:23;;;;;;;22.37;10.30;;;;;;;;;;6281456;22;20181;-91
2021/11/28 08:31:36;;;;;;;15.93;8.70;;;;;;;;;;6298499;22;20169;-91
2021/11/28 08:35:22;;;;;;;15.33;7.83;;;;;;;;;;6177984;23;20221;-91
2021/11/28 08:38:32;;;;;;;15.07;7.77;;;;;;;;;;6175883;22;20253;-90
2021/11/28 08:41:38;;;;;;;12.80;7.60;;;;;;;;;;6282815;22;20185;-91
2021/11/28 08:44:45;;;;;;;22.10;9.17;;;;;;;;;;6281737;22;20170;-91
2021/11/28 08:47:56;;;;;;;14.77;8.17;;;;;;;;;;6282724;22;20346;-88
2021/11/28 08:51:03;;;;;;;16.93;7.87;;;;;;;;;;6282713;22;20174;-89
2021/11/28 08:54:13;;;;;;;14.43;7.87;;;;;;;;;;6264606;22;20209;-91
2021/11/28 08:57:18;;;;;;;16.93;9.20;;;;;;;;;;6282112;22;20178;-90
2021/11/28 09:00:24;;;;;;;13.77;8.07;;;;;;;;;;6281385;22;20201;-90
2021/11/28 09:03:32;;;;;;;17.50;7.30;;;;;;;;;;6299281;22;20165;-93
2021/11/28 09:10:22;;;;;;;12.73;7.50;;;;;;;;;;6298861;22;20170;-91
2021/11/28 09:13:28;;;;;;;11.50;6.60;;;;;;;;;;6282042;22;20209;-92
2021/11/28 09:16:39;;;;;;;11.87;6.27;;;;;;;;;;6282095;22;20193;-91
2021/11/28 09:19:52;;;;;;;15.27;6.50;;;;;;;;;;6281073;22;20169;-91
2021/11/28 09:26:21;;;;;;;13.83;7.13;;;;;;;;;;6298860;22;20244;-89
2021/11/28 09:29:27;;;;;;;11.57;6.70;;;;;;;;;;6282150;22;20173;-90
2021/11/28 09:32:33;;;;;;;13.73;7.23;;;;;;;;;;6281797;22;20500;-90
2021/11/28 09:35:43;;;;;;;12.63;7.23;;;;;;;;;;6282574;22;20156;-92
2021/11/28 09:38:49;;;;;;;15.67;7.70;;;;;;;;;;6281890;22;20248;-91
